sensor_id;sensor_type;location;lat;lon;timestamp;temperature;humidity
21622;DHT22;10973;46.706;12.340;2023-11-21T00:01:31;1.60;99.90
21622;DHT22;10973;46.706;12.340;2023-11-21T00:03:58;1.70;99.90
21622;DHT22;10973;46.706;12.340;2023-11-21T00:06:26;1.70;99.90
21622;DHT22;10973;46.706;12.340;2023-11-21T00:08:53;1.70;99.90
21622;DHT22;10973;46.706;12.340;2023-11-21T00:11:20;1.10;99.90
21622;DHT22;10973;46.706;12.340;2023-11-21T00:13:48;1.70;99.90
21622;DHT22;10973;46.706;12.340;2023-11-21T00:16:17;1.80;99.90
21622;DHT22;10973;46.706;12.340;2023-11-21T00:18:44;1.80;99.90
21622;DHT22;10973;46.706;12.340;2023-11-21T00:21:12;1.80;99.90
21622;DHT22;10973;46.706;12.340;2023-11-21T00:23:40;1.80;99.90
21622;DHT22;10973;46.706;12.340;2023-11-21T00:26:07;1.70;99.90
21622;DHT22;10973;46.706;12.340;2023-11-21T00:28:34;1.70;99.90
21622;DHT22;10973;46.706;12.340;2023-11-21T00:31:02;1.70;99.90
21622;DHT22;10973;46.706;12.340;2023-11-21T00:33:29;1.70;99.90
21622;DHT22;10973;46.706;12.340;2023-11-21T00:35:57;1.70;99.90
21622;DHT22;10973;46.706;12.340;2023-11-21T00:38:25;1.70;99.90
21622;DHT22;10973;46.706;12.340;2023-11-21T00:40:53;1.60;99.90
21622;DHT22;10973;46.706;12.340;2023-11-21T00:43:20;1.60;99.90
21622;DHT22;10973;46.706;12.340;2023-11-21T00:45:48;1.60;99.90
21622;DHT22;10973;46.706;12.340;2023-11-21T00:48:15;1.60;99.90
21622;DHT22;10973;46.706;12.340;2023-11-21T00:50:43;1.60;99.90
21622;DHT22;10973;46.706;12.340;2023-11-21T00:53:11;1.50;99.90
21622;DHT22;10973;46.706;12.340;2023-11-21T00:55:38;1.50;99.90
21622;DHT22;10973;46.706;12.340;2023-11-21T00:58:06;1.50;99.90
21622;DHT22;10973;46.706;12.340;2023-11-21T01:00:34;1.50;99.90
21622;DHT22;10973;46.706;12.340;2023-11-21T01:03:01;1.50;99.90
21622;DHT22;10973;46.706;12.340;2023-11-21T01:05:29;1.50;99.90
21622;DHT22;10973;46.706;12.340;2023-11-21T01:07:56;1.40;99.90
21622;DHT22;10973;46.706;12.340;2023-11-21T01:10:23;1.40;99.90
21622;DHT22;10973;46.706;12.340;2023-11-21T01:12:51;1.40;99.90
21622;DHT22;10973;46.706;12.340;2023-11-21T01:15:18;1.30;99.90
21622;DHT22;10973;46.706;12.340;2023-11-21T01:17:46;1.30;99.90
21622;DHT22;10973;46.706;12.340;2023-11-21T01:20:14;1.30;99.90
21622;DHT22;10973;46.706;12.340;2023-11-21T01:22:42;1.30;99.90
21622;DHT22;10973;46.706;12.340;2023-11-21T01:25:09;1.30;99.90
21622;DHT22;10973;46.706;12.340;2023-11-21T01:27:37;1.30;99.90
21622;DHT22;10973;46.706;12.340;2023-11-21T01:30:05;1.30;99.90
21622;DHT22;10973;46.706;12.340;2023-11-21T01:32:33;1.30;99.90
21622;DHT22;10973;46.706;12.340;2023-11-21T01:35:00;1.30;99.90
21622;DHT22;10973;46.706;12.340;2023-11-21T01:37:28;1.30;99.90
21622;DHT22;10973;46.706;12.340;2023-11-21T01:39:55;1.30;99.90
21622;DHT22;10973;46.706;12.340;2023-11-21T01:42:23;1.30;99.90
21622;DHT22;10973;46.706;12.340;2023-11-21T01:44:50;1.30;99.90
21622;DHT22;10973;46.706;12.340;2023-11-21T01:47:18;1.30;99.90
21622;DHT22;10973;46.706;12.340;2023-11-21T01:49:46;1.30;99.90
21622;DHT22;10973;46.706;12.340;2023-11-21T01:52:14;1.40;99.90
21622;DHT22;10973;46.706;12.340;2023-11-21T01:54:42;1.40;99.90
21622;DHT22;10973;46.706;12.340;2023-11-21T01:57:10;1.40;99.90
21622;DHT22;10973;46.706;12.340;2023-11-21T01:59:38;1.40;99.90
21622;DHT22;10973;46.706;12.340;2023-11-21T02:02:08;1.40;99.90
21622;DHT22;10973;46.706;12.340;2023-11-21T02:04:36;1.30;99.90
21622;DHT22;10973;46.706;12.340;2023-11-21T02:07:04;1.30;99.90
21622;DHT22;10973;46.706;12.340;2023-11-21T02:09:32;1.30;99.90
21622;DHT22;10973;46.706;12.340;2023-11-21T02:12:00;1.30;99.90
21622;DHT22;10973;46.706;12.340;2023-11-21T02:14:30;1.20;99.90
21622;DHT22;10973;46.706;12.340;2023-11-21T02:16:57;1.20;99.90
21622;DHT22;10973;46.706;12.340;2023-11-21T02:19:25;1.20;99.90
21622;DHT22;10973;46.706;12.340;2023-11-21T02:21:53;1.20;99.90
21622;DHT22;10973;46.706;12.340;2023-11-21T02:24:24;1.20;99.90
21622;DHT22;10973;46.706;12.340;2023-11-21T02:26:51;1.20;99.90
21622;DHT22;10973;46.706;12.340;2023-11-21T02:29:19;1.20;99.90
21622;DHT22;10973;46.706;12.340;2023-11-21T02:31:49;1.10;99.90
21622;DHT22;10973;46.706;12.340;2023-11-21T02:34:19;1.10;99.90
21622;DHT22;10973;46.706;12.340;2023-11-21T02:36:47;1.00;99.90
21622;DHT22;10973;46.706;12.340;2023-11-21T02:39:15;1.10;99.90
21622;DHT22;10973;46.706;12.340;2023-11-21T02:41:43;1.10;99.90
21622;DHT22;10973;46.706;12.340;2023-11-21T02:44:11;1.10;99.90
21622;DHT22;10973;46.706;12.340;2023-11-21T02:46:42;1.10;99.90
21622;DHT22;10973;46.706;12.340;2023-11-21T02:49:22;1.10;99.90
21622;DHT22;10973;46.706;12.340;2023-11-21T02:51:54;1.10;99.90
21622;DHT22;10973;46.706;12.340;2023-11-21T02:54:21;1.10;99.90
21622;DHT22;10973;46.706;12.340;2023-11-21T02:56:49;1.10;99.90
21622;DHT22;10973;46.706;12.340;2023-11-21T02:59:17;1.10;99.90
21622;DHT22;10973;46.706;12.340;2023-11-21T03:01:44;1.10;99.90
21622;DHT22;10973;46.706;12.340;2023-11-21T03:04:12;1.10;99.90
21622;DHT22;10973;46.706;12.340;2023-11-21T03:06:40;1.00;99.90
21622;DHT22;10973;46.706;12.340;2023-11-21T03:09:07;1.00;99.90
21622;DHT22;10973;46.706;12.340;2023-11-21T03:11:35;1.00;99.90
21622;DHT22;10973;46.706;12.340;2023-11-21T03:14:02;1.00;99.90
21622;DHT22;10973;46.706;12.340;2023-11-21T03:16:32;1.10;99.90
21622;DHT22;10973;46.706;12.340;2023-11-21T03:19:00;1.00;99.90
21622;DHT22;10973;46.706;12.340;2023-11-21T03:21:27;1.00;99.90
21622;DHT22;10973;46.706;12.340;2023-11-21T03:23:54;1.00;99.90
21622;DHT22;10973;46.706;12.340;2023-11-21T03:26:22;1.00;99.90
21622;DHT22;10973;46.706;12.340;2023-11-21T03:28:49;1.00;99.90
21622;DHT22;10973;46.706;12.340;2023-11-21T03:31:17;1.00;99.90
21622;DHT22;10973;46.706;12.340;2023-11-21T03:33:44;1.00;99.90
21622;DHT22;10973;46.706;12.340;2023-11-21T03:36:12;1.10;99.90
21622;DHT22;10973;46.706;12.340;2023-11-21T03:38:41;1.10;99.90
21622;DHT22;10973;46.706;12.340;2023-11-21T03:41:08;1.00;99.90
21622;DHT22;10973;46.706;12.340;2023-11-21T03:43:39;1.10;99.90
21622;DHT22;10973;46.706;12.340;2023-11-21T03:46:06;1.10;99.90
21622;DHT22;10973;46.706;12.340;2023-11-21T03:48:33;1.00;99.90
21622;DHT22;10973;46.706;12.340;2023-11-21T03:51:01;1.00;99.90
21622;DHT22;10973;46.706;12.340;2023-11-21T03:53:28;1.10;99.90
21622;DHT22;10973;46.706;12.340;2023-11-21T03:55:57;1.20;99.90
21622;DHT22;10973;46.706;12.340;2023-11-21T03:58:25;1.20;99.90
21622;DHT22;10973;46.706;12.340;2023-11-21T04:00:52;1.10;99.90
21622;DHT22;10973;46.706;12.340;2023-11-21T04:03:20;1.10;99.90
21622;DHT22;10973;46.706;12.340;2023-11-21T04:05:47;1.10;99.90
21622;DHT22;10973;46.706;12.340;2023-11-21T04:08:15;1.20;99.90
21622;DHT22;10973;46.706;12.340;2023-11-21T04:10:42;1.10;99.90
21622;DHT22;10973;46.706;12.340;2023-11-21T04:13:10;1.10;99.90
21622;DHT22;10973;46.706;12.340;2023-11-21T04:15:37;1.20;99.90
21622;DHT22;10973;46.706;12.340;2023-11-21T04:18:04;1.20;99.90
21622;DHT22;10973;46.706;12.340;2023-11-21T04:20:32;1.20;99.90
21622;DHT22;10973;46.706;12.340;2023-11-21T04:23:00;1.20;99.90
21622;DHT22;10973;46.706;12.340;2023-11-21T04:25:27;1.20;99.90
21622;DHT22;10973;46.706;12.340;2023-11-21T04:27:55;1.20;99.90
21622;DHT22;10973;46.706;12.340;2023-11-21T04:30:22;1.20;99.90
21622;DHT22;10973;46.706;12.340;2023-11-21T04:32:50;1.20;99.90
21622;DHT22;10973;46.706;12.340;2023-11-21T04:35:17;1.20;99.90
21622;DHT22;10973;46.706;12.340;2023-11-21T04:37:45;1.30;99.90
21622;DHT22;10973;46.706;12.340;2023-11-21T04:40:12;1.20;99.90
21622;DHT22;10973;46.706;12.340;2023-11-21T04:42:40;1.30;99.90
21622;DHT22;10973;46.706;12.340;2023-11-21T04:45:08;1.30;99.90
21622;DHT22;10973;46.706;12.340;2023-11-21T04:47:36;1.30;99.90
21622;DHT22;10973;46.706;12.340;2023-11-21T04:50:04;1.30;99.90
21622;DHT22;10973;46.706;12.340;2023-11-21T04:52:33;1.30;99.90
21622;DHT22;10973;46.706;12.340;2023-11-21T04:55:00;1.30;99.90
21622;DHT22;10973;46.706;12.340;2023-11-21T04:57:28;1.30;99.90
21622;DHT22;10973;46.706;12.340;2023-11-21T04:59:55;1.30;99.90
21622;DHT22;10973;46.706;12.340;2023-11-21T05:02:23;1.30;99.90
21622;DHT22;10973;46.706;12.340;2023-11-21T05:05:02;1.30;99.90
21622;DHT22;10973;46.706;12.340;2023-11-21T05:07:30;1.30;99.90
21622;DHT22;10973;46.706;12.340;2023-11-21T05:09:58;1.30;99.90
21622;DHT22;10973;46.706;12.340;2023-11-21T05:12:26;1.30;99.90
21622;DHT22;10973;46.706;12.340;2023-11-21T05:14:54;1.30;99.90
21622;DHT22;10973;46.706;12.340;2023-11-21T05:17:21;1.30;99.90
21622;DHT22;10973;46.706;12.340;2023-11-21T05:19:49;1.30;99.90
21622;DHT22;10973;46.706;12.340;2023-11-21T05:22:17;1.30;99.90
21622;DHT22;10973;46.706;12.340;2023-11-21T05:24:44;1.30;99.90
21622;DHT22;10973;46.706;12.340;2023-11-21T05:27:12;1.30;99.90
21622;DHT22;10973;46.706;12.340;2023-11-21T05:29:39;1.30;99.90
21622;DHT22;10973;46.706;12.340;2023-11-21T05:32:08;1.30;99.90
21622;DHT22;10973;46.706;12.340;2023-11-21T05:34:39;1.30;99.90
21622;DHT22;10973;46.706;12.340;2023-11-21T05:37:06;1.30;99.90
21622;DHT22;10973;46.706;12.340;2023-11-21T05:39:33;1.30;99.90
21622;DHT22;10973;46.706;12.340;2023-11-21T05:42:01;1.30;99.90
21622;DHT22;10973;46.706;12.340;2023-11-21T05:44:29;1.30;99.90
21622;DHT22;10973;46.706;12.340;2023-11-21T05:46:56;1.40;99.90
21622;DHT22;10973;46.706;12.340;2023-11-21T05:49:24;1.40;99.90
21622;DHT22;10973;46.706;12.340;2023-11-21T05:51:53;1.40;99.90
21622;DHT22;10973;46.706;12.340;2023-11-21T05:54:21;1.40;99.90
21622;DHT22;10973;46.706;12.340;2023-11-21T05:56:49;1.40;99.90
21622;DHT22;10973;46.706;12.340;2023-11-21T05:59:16;1.40;99.90
21622;DHT22;10973;46.706;12.340;2023-11-21T06:01:47;1.40;99.90
21622;DHT22;10973;46.706;12.340;2023-11-21T06:04:14;1.40;99.90
21622;DHT22;10973;46.706;12.340;2023-11-21T06:06:42;1.40;99.90
21622;DHT22;10973;46.706;12.340;2023-11-21T06:09:09;1.40;99.90
21622;DHT22;10973;46.706;12.340;2023-11-21T06:11:36;1.40;99.90
21622;DHT22;10973;46.706;12.340;2023-11-21T06:14:04;1.40;99.90
21622;DHT22;10973;46.706;12.340;2023-11-21T06:16:31;1.40;99.90
21622;DHT22;10973;46.706;12.340;2023-11-21T06:18:59;1.40;99.90
21622;DHT22;10973;46.706;12.340;2023-11-21T06:21:26;1.50;99.90
21622;DHT22;10973;46.706;12.340;2023-11-21T06:23:54;1.50;99.90
21622;DHT22;10973;46.706;12.340;2023-11-21T06:26:21;1.50;99.90
21622;DHT22;10973;46.706;12.340;2023-11-21T06:28:49;1.40;99.90
21622;DHT22;10973;46.706;12.340;2023-11-21T06:31:16;1.40;99.90
21622;DHT22;10973;46.706;12.340;2023-11-21T06:33:44;1.40;99.90
21622;DHT22;10973;46.706;12.340;2023-11-21T06:36:11;1.40;99.90
21622;DHT22;10973;46.706;12.340;2023-11-21T06:38:39;1.40;99.90
21622;DHT22;10973;46.706;12.340;2023-11-21T06:41:06;1.40;99.90
21622;DHT22;10973;46.706;12.340;2023-11-21T06:43:34;1.50;99.90
21622;DHT22;10973;46.706;12.340;2023-11-21T06:46:01;1.50;99.90
21622;DHT22;10973;46.706;12.340;2023-11-21T06:48:29;1.50;99.90
21622;DHT22;10973;46.706;12.340;2023-11-21T06:50:56;1.50;99.90
21622;DHT22;10973;46.706;12.340;2023-11-21T06:53:24;1.50;99.90
21622;DHT22;10973;46.706;12.340;2023-11-21T06:55:51;1.60;99.90
21622;DHT22;10973;46.706;12.340;2023-11-21T06:58:19;1.60;99.90
21622;DHT22;10973;46.706;12.340;2023-11-21T07:00:46;1.60;99.90
21622;DHT22;10973;46.706;12.340;2023-11-21T07:03:14;1.60;99.90
21622;DHT22;10973;46.706;12.340;2023-11-21T07:05:41;1.60;99.90
21622;DHT22;10973;46.706;12.340;2023-11-21T07:08:09;1.70;99.90
21622;DHT22;10973;46.706;12.340;2023-11-21T07:10:37;1.70;99.90
21622;DHT22;10973;46.706;12.340;2023-11-21T07:13:05;1.70;99.90
21622;DHT22;10973;46.706;12.340;2023-11-21T07:15:32;1.70;99.90
21622;DHT22;10973;46.706;12.340;2023-11-21T07:18:00;1.70;99.90
21622;DHT22;10973;46.706;12.340;2023-11-21T07:20:27;1.70;99.90
21622;DHT22;10973;46.706;12.340;2023-11-21T07:22:55;1.80;99.90
21622;DHT22;10973;46.706;12.340;2023-11-21T07:25:23;1.70;99.90
21622;DHT22;10973;46.706;12.340;2023-11-21T07:27:50;1.80;99.90
21622;DHT22;10973;46.706;12.340;2023-11-21T07:30:17;2.40;99.90
21622;DHT22;10973;46.706;12.340;2023-11-21T07:32:45;1.80;99.90
21622;DHT22;10973;46.706;12.340;2023-11-21T07:35:12;1.90;99.90
21622;DHT22;10973;46.706;12.340;2023-11-21T07:37:40;1.90;99.90
21622;DHT22;10973;46.706;12.340;2023-11-21T07:40:08;1.90;99.90
21622;DHT22;10973;46.706;12.340;2023-11-21T07:42:36;2.00;99.90
21622;DHT22;10973;46.706;12.340;2023-11-21T07:45:05;1.90;99.90
21622;DHT22;10973;46.706;12.340;2023-11-21T07:47:33;2.00;99.90
21622;DHT22;10973;46.706;12.340;2023-11-21T07:50:03;2.00;99.90
21622;DHT22;10973;46.706;12.340;2023-11-21T07:52:31;2.10;99.90
21622;DHT22;10973;46.706;12.340;2023-11-21T07:54:59;2.10;99.90
21622;DHT22;10973;46.706;12.340;2023-11-21T07:57:26;2.20;99.90
21622;DHT22;10973;46.706;12.340;2023-11-21T07:59:53;2.20;99.90
21622;DHT22;10973;46.706;12.340;2023-11-21T08:02:21;2.20;99.90
21622;DHT22;10973;46.706;12.340;2023-11-21T08:04:49;2.20;99.90
21622;DHT22;10973;46.706;12.340;2023-11-21T08:07:17;2.30;99.90
21622;DHT22;10973;46.706;12.340;2023-11-21T08:09:45;2.40;99.90
21622;DHT22;10973;46.706;12.340;2023-11-21T08:12:13;2.40;99.90
21622;DHT22;10973;46.706;12.340;2023-11-21T08:14:40;2.50;99.90
21622;DHT22;10973;46.706;12.340;2023-11-21T08:17:07;2.50;99.90
21622;DHT22;10973;46.706;12.340;2023-11-21T08:19:35;2.60;99.90
21622;DHT22;10973;46.706;12.340;2023-11-21T08:22:03;2.60;99.90
21622;DHT22;10973;46.706;12.340;2023-11-21T08:24:31;2.60;99.90
21622;DHT22;10973;46.706;12.340;2023-11-21T08:26:58;2.70;99.90
21622;DHT22;10973;46.706;12.340;2023-11-21T08:29:26;2.70;99.90
21622;DHT22;10973;46.706;12.340;2023-11-21T08:31:53;2.80;99.90
21622;DHT22;10973;46.706;12.340;2023-11-21T08:34:21;3.00;99.90
21622;DHT22;10973;46.706;12.340;2023-11-21T08:36:48;3.10;99.90
21622;DHT22;10973;46.706;12.340;2023-11-21T08:39:16;3.20;99.90
21622;DHT22;10973;46.706;12.340;2023-11-21T08:41:44;3.30;99.90
21622;DHT22;10973;46.706;12.340;2023-11-21T08:44:11;3.40;99.90
21622;DHT22;10973;46.706;12.340;2023-11-21T08:46:38;3.90;99.90
21622;DHT22;10973;46.706;12.340;2023-11-21T08:49:06;3.40;99.90
21622;DHT22;10973;46.706;12.340;2023-11-21T08:51:34;3.50;99.90
21622;DHT22;10973;46.706;12.340;2023-11-21T08:54:01;3.50;99.90
21622;DHT22;10973;46.706;12.340;2023-11-21T08:56:29;3.50;99.90
21622;DHT22;10973;46.706;12.340;2023-11-21T08:58:56;3.60;99.90
21622;DHT22;10973;46.706;12.340;2023-11-21T09:01:24;3.60;99.90
21622;DHT22;10973;46.706;12.340;2023-11-21T09:03:52;3.60;99.90
21622;DHT22;10973;46.706;12.340;2023-11-21T09:06:20;3.60;99.90
21622;DHT22;10973;46.706;12.340;2023-11-21T09:08:47;3.70;99.90
21622;DHT22;10973;46.706;12.340;2023-11-21T09:11:14;3.70;99.90
21622;DHT22;10973;46.706;12.340;2023-11-21T09:13:42;3.70;99.90
21622;DHT22;10973;46.706;12.340;2023-11-21T09:16:09;3.80;99.90
21622;DHT22;10973;46.706;12.340;2023-11-21T09:18:37;3.80;99.90
21622;DHT22;10973;46.706;12.340;2023-11-21T09:21:05;3.80;99.90
21622;DHT22;10973;46.706;12.340;2023-11-21T09:23:32;3.90;99.90
21622;DHT22;10973;46.706;12.340;2023-11-21T09:26:00;3.90;99.90
21622;DHT22;10973;46.706;12.340;2023-11-21T09:28:28;3.90;99.90
21622;DHT22;10973;46.706;12.340;2023-11-21T09:30:56;3.90;99.90
21622;DHT22;10973;46.706;12.340;2023-11-21T09:33:23;3.90;99.90
21622;DHT22;10973;46.706;12.340;2023-11-21T09:35:51;4.00;99.90
21622;DHT22;10973;46.706;12.340;2023-11-21T09:38:18;4.00;99.90
21622;DHT22;10973;46.706;12.340;2023-11-21T09:40:46;4.00;99.90
21622;DHT22;10973;46.706;12.340;2023-11-21T09:43:17;4.00;99.90
21622;DHT22;10973;46.706;12.340;2023-11-21T09:45:48;4.00;99.90
21622;DHT22;10973;46.706;12.340;2023-11-21T09:48:22;4.00;99.90
21622;DHT22;10973;46.706;12.340;2023-11-21T09:50:53;4.00;99.90
21622;DHT22;10973;46.706;12.340;2023-11-21T09:53:22;4.00;99.90
21622;DHT22;10973;46.706;12.340;2023-11-21T09:55:53;4.00;99.90
21622;DHT22;10973;46.706;12.340;2023-11-21T09:58:21;4.00;99.90
21622;DHT22;10973;46.706;12.340;2023-11-21T10:00:50;4.10;99.90
21622;DHT22;10973;46.706;12.340;2023-11-21T10:03:20;4.10;99.90
21622;DHT22;10973;46.706;12.340;2023-11-21T10:05:50;4.10;99.90
21622;DHT22;10973;46.706;12.340;2023-11-21T10:08:20;4.10;99.90
21622;DHT22;10973;46.706;12.340;2023-11-21T10:10:52;4.10;99.90
21622;DHT22;10973;46.706;12.340;2023-11-21T10:13:21;4.10;99.90
21622;DHT22;10973;46.706;12.340;2023-11-21T10:15:50;4.10;99.90
21622;DHT22;10973;46.706;12.340;2023-11-21T10:18:19;4.20;99.90
21622;DHT22;10973;46.706;12.340;2023-11-21T10:20:47;4.10;99.90
21622;DHT22;10973;46.706;12.340;2023-11-21T10:23:15;4.10;99.90
21622;DHT22;10973;46.706;12.340;2023-11-21T10:25:42;4.20;99.90
21622;DHT22;10973;46.706;12.340;2023-11-21T10:28:10;4.20;99.90
21622;DHT22;10973;46.706;12.340;2023-11-21T10:30:38;4.20;99.90
21622;DHT22;10973;46.706;12.340;2023-11-21T10:33:07;4.20;99.90
21622;DHT22;10973;46.706;12.340;2023-11-21T10:38:09;4.20;99.90
21622;DHT22;10973;46.706;12.340;2023-11-21T10:40:43;4.20;99.90
21622;DHT22;10973;46.706;12.340;2023-11-21T10:43:11;4.20;99.90
21622;DHT22;10973;46.706;12.340;2023-11-21T10:45:40;4.20;99.90
21622;DHT22;10973;46.706;12.340;2023-11-21T10:48:10;4.30;99.90
21622;DHT22;10973;46.706;12.340;2023-11-21T10:50:40;4.20;99.90
21622;DHT22;10973;46.706;12.340;2023-11-21T10:53:07;4.20;99.90
21622;DHT22;10973;46.706;12.340;2023-11-21T10:55:35;4.30;99.90
21622;DHT22;10973;46.706;12.340;2023-11-21T10:58:03;4.30;99.90
21622;DHT22;10973;46.706;12.340;2023-11-21T11:00:33;4.30;99.90
21622;DHT22;10973;46.706;12.340;2023-11-21T11:03:01;4.30;99.90
21622;DHT22;10973;46.706;12.340;2023-11-21T11:05:30;4.30;99.90
21622;DHT22;10973;46.706;12.340;2023-11-21T11:08:06;4.40;99.90
21622;DHT22;10973;46.706;12.340;2023-11-21T11:10:35;4.40;99.90
21622;DHT22;10973;46.706;12.340;2023-11-21T11:13:04;4.40;99.90
21622;DHT22;10973;46.706;12.340;2023-11-21T11:15:34;4.40;99.90
21622;DHT22;10973;46.706;12.340;2023-11-21T11:18:02;4.40;99.90
21622;DHT22;10973;46.706;12.340;2023-11-21T11:20:36;4.40;99.90
21622;DHT22;10973;46.706;12.340;2023-11-21T11:29:11;4.60;99.90
21622;DHT22;10973;46.706;12.340;2023-11-21T11:37:31;4.70;99.90
21622;DHT22;10973;46.706;12.340;2023-11-21T11:39:59;4.70;99.90
21622;DHT22;10973;46.706;12.340;2023-11-21T11:42:27;4.80;99.90
21622;DHT22;10973;46.706;12.340;2023-11-21T11:44:54;4.80;99.90
21622;DHT22;10973;46.706;12.340;2023-11-21T11:47:27;4.80;99.90
21622;DHT22;10973;46.706;12.340;2023-11-21T11:50:08;4.90;99.90
21622;DHT22;10973;46.706;12.340;2023-11-21T11:55:12;5.00;99.90
21622;DHT22;10973;46.706;12.340;2023-11-21T11:57:41;5.00;99.90
21622;DHT22;10973;46.706;12.340;2023-11-21T12:00:20;5.00;99.90
21622;DHT22;10973;46.706;12.340;2023-11-21T12:05:22;5.00;99.90
21622;DHT22;10973;46.706;12.340;2023-11-21T12:07:55;5.00;99.90
21622;DHT22;10973;46.706;12.340;2023-11-21T12:10:26;5.00;99.90
21622;DHT22;10973;46.706;12.340;2023-11-21T12:12:57;5.00;99.90
21622;DHT22;10973;46.706;12.340;2023-11-21T12:15:27;4.90;99.90
21622;DHT22;10973;46.706;12.340;2023-11-21T12:17:55;4.90;99.90
21622;DHT22;10973;46.706;12.340;2023-11-21T12:20:24;4.90;99.90
21622;DHT22;10973;46.706;12.340;2023-11-21T12:22:57;5.00;99.90
21622;DHT22;10973;46.706;12.340;2023-11-21T12:25:31;5.00;99.90
21622;DHT22;10973;46.706;12.340;2023-11-21T12:28:00;5.00;99.90
21622;DHT22;10973;46.706;12.340;2023-11-21T12:30:30;5.10;99.90
21622;DHT22;10973;46.706;12.340;2023-11-21T12:33:00;5.10;99.90
21622;DHT22;10973;46.706;12.340;2023-11-21T12:35:33;5.10;99.90
21622;DHT22;10973;46.706;12.340;2023-11-21T12:38:03;5.20;99.90
21622;DHT22;10973;46.706;12.340;2023-11-21T12:40:31;5.20;99.90
21622;DHT22;10973;46.706;12.340;2023-11-21T12:42:59;5.30;99.90
21622;DHT22;10973;46.706;12.340;2023-11-21T12:45:28;5.30;99.90
21622;DHT22;10973;46.706;12.340;2023-11-21T12:48:05;5.30;99.90
21622;DHT22;10973;46.706;12.340;2023-11-21T12:50:34;5.30;99.90
21622;DHT22;10973;46.706;12.340;2023-11-21T12:53:08;5.30;99.90
21622;DHT22;10973;46.706;12.340;2023-11-21T12:55:36;5.40;99.90
21622;DHT22;10973;46.706;12.340;2023-11-21T12:58:09;5.40;99.90
21622;DHT22;10973;46.706;12.340;2023-11-21T13:00:49;5.40;99.90
21622;DHT22;10973;46.706;12.340;2023-11-21T13:03:17;5.40;99.90
21622;DHT22;10973;46.706;12.340;2023-11-21T13:05:49;5.30;99.90
21622;DHT22;10973;46.706;12.340;2023-11-21T13:08:17;5.40;99.90
21622;DHT22;10973;46.706;12.340;2023-11-21T13:10:45;5.30;99.90
21622;DHT22;10973;46.706;12.340;2023-11-21T13:13:16;5.40;99.90
21622;DHT22;10973;46.706;12.340;2023-11-21T13:15:51;5.30;99.90
21622;DHT22;10973;46.706;12.340;2023-11-21T13:18:20;5.20;99.90
21622;DHT22;10973;46.706;12.340;2023-11-21T13:20:48;5.10;99.90
21622;DHT22;10973;46.706;12.340;2023-11-21T13:23:16;5.10;99.90
21622;DHT22;10973;46.706;12.340;2023-11-21T13:25:44;5.10;99.90
21622;DHT22;10973;46.706;12.340;2023-11-21T13:28:23;5.20;99.90
21622;DHT22;10973;46.706;12.340;2023-11-21T13:30:51;5.10;99.90
21622;DHT22;10973;46.706;12.340;2023-11-21T13:33:19;5.20;99.90
21622;DHT22;10973;46.706;12.340;2023-11-21T13:35:46;5.10;99.90
21622;DHT22;10973;46.706;12.340;2023-11-21T13:38:15;5.10;99.90
21622;DHT22;10973;46.706;12.340;2023-11-21T13:40:48;5.10;99.90
21622;DHT22;10973;46.706;12.340;2023-11-21T13:43:18;5.10;99.90
21622;DHT22;10973;46.706;12.340;2023-11-21T13:45:48;5.00;99.90
21622;DHT22;10973;46.706;12.340;2023-11-21T13:48:16;5.10;99.90
21622;DHT22;10973;46.706;12.340;2023-11-21T13:50:43;5.10;99.90
21622;DHT22;10973;46.706;12.340;2023-11-21T13:53:11;5.10;99.90
21622;DHT22;10973;46.706;12.340;2023-11-21T13:55:38;5.10;99.90
21622;DHT22;10973;46.706;12.340;2023-11-21T13:58:06;5.10;99.90
21622;DHT22;10973;46.706;12.340;2023-11-21T14:00:33;5.00;99.90
21622;DHT22;10973;46.706;12.340;2023-11-21T14:03:01;5.00;99.90
21622;DHT22;10973;46.706;12.340;2023-11-21T14:05:29;4.90;99.90
21622;DHT22;10973;46.706;12.340;2023-11-21T14:07:57;4.90;99.90
21622;DHT22;10973;46.706;12.340;2023-11-21T14:10:25;4.80;99.90
21622;DHT22;10973;46.706;12.340;2023-11-21T14:12:52;4.70;99.90
21622;DHT22;10973;46.706;12.340;2023-11-21T14:15:20;4.70;99.90
21622;DHT22;10973;46.706;12.340;2023-11-21T14:17:48;4.70;99.90
21622;DHT22;10973;46.706;12.340;2023-11-21T14:20:15;4.60;99.90
21622;DHT22;10973;46.706;12.340;2023-11-21T14:22:44;4.60;99.90
21622;DHT22;10973;46.706;12.340;2023-11-21T14:25:12;4.60;99.90
21622;DHT22;10973;46.706;12.340;2023-11-21T14:27:39;4.60;99.90
21622;DHT22;10973;46.706;12.340;2023-11-21T14:30:07;4.60;99.90
21622;DHT22;10973;46.706;12.340;2023-11-21T14:32:35;4.50;99.90
21622;DHT22;10973;46.706;12.340;2023-11-21T14:35:03;4.40;99.90
21622;DHT22;10973;46.706;12.340;2023-11-21T14:37:31;4.40;99.90
21622;DHT22;10973;46.706;12.340;2023-11-21T14:39:58;4.40;99.90
21622;DHT22;10973;46.706;12.340;2023-11-21T14:42:26;4.40;99.90
21622;DHT22;10973;46.706;12.340;2023-11-21T14:44:53;4.30;99.90
21622;DHT22;10973;46.706;12.340;2023-11-21T14:47:21;4.30;99.90
21622;DHT22;10973;46.706;12.340;2023-11-21T14:49:48;4.30;99.90
21622;DHT22;10973;46.706;12.340;2023-11-21T14:52:16;4.30;99.90
21622;DHT22;10973;46.706;12.340;2023-11-21T14:54:45;4.20;99.90
21622;DHT22;10973;46.706;12.340;2023-11-21T14:57:13;4.20;99.90
21622;DHT22;10973;46.706;12.340;2023-11-21T14:59:46;4.20;99.90
21622;DHT22;10973;46.706;12.340;2023-11-21T15:02:14;4.30;99.90
21622;DHT22;10973;46.706;12.340;2023-11-21T15:04:43;4.20;99.90
21622;DHT22;10973;46.706;12.340;2023-11-21T15:07:11;4.20;99.90
21622;DHT22;10973;46.706;12.340;2023-11-21T15:09:39;4.20;99.90
21622;DHT22;10973;46.706;12.340;2023-11-21T15:12:08;4.20;99.90
21622;DHT22;10973;46.706;12.340;2023-11-21T15:14:38;4.10;99.90
21622;DHT22;10973;46.706;12.340;2023-11-21T15:17:05;4.10;99.90
21622;DHT22;10973;46.706;12.340;2023-11-21T15:19:33;4.10;99.90
21622;DHT22;10973;46.706;12.340;2023-11-21T15:22:01;4.00;99.90
21622;DHT22;10973;46.706;12.340;2023-11-21T15:24:29;4.00;99.90
21622;DHT22;10973;46.706;12.340;2023-11-21T15:26:56;4.00;99.90
21622;DHT22;10973;46.706;12.340;2023-11-21T15:29:24;4.00;99.90
21622;DHT22;10973;46.706;12.340;2023-11-21T15:31:52;3.90;99.90
21622;DHT22;10973;46.706;12.340;2023-11-21T15:34:19;3.90;99.90
21622;DHT22;10973;46.706;12.340;2023-11-21T15:36:47;3.90;99.90
21622;DHT22;10973;46.706;12.340;2023-11-21T15:39:14;3.80;99.90
21622;DHT22;10973;46.706;12.340;2023-11-21T15:41:41;3.80;99.90
21622;DHT22;10973;46.706;12.340;2023-11-21T15:44:10;3.80;99.90
21622;DHT22;10973;46.706;12.340;2023-11-21T15:46:38;3.70;99.90
21622;DHT22;10973;46.706;12.340;2023-11-21T15:49:06;3.60;99.90
21622;DHT22;10973;46.706;12.340;2023-11-21T15:51:34;3.60;99.90
21622;DHT22;10973;46.706;12.340;2023-11-21T15:54:02;3.50;99.90
21622;DHT22;10973;46.706;12.340;2023-11-21T15:56:29;3.40;99.90